createdAt,value
2017-08-29T00:00:11.872Z,22.00
2017-08-29T00:02:40.320Z,21.90
2017-08-29T00:05:09.492Z,21.90
2017-08-29T00:07:37.909Z,21.80
2017-08-29T00:10:06.378Z,21.80
2017-08-29T00:12:35.061Z,21.80
2017-08-29T00:15:03.484Z,21.80
2017-08-29T00:17:31.943Z,21.70
2017-08-29T00:20:00.388Z,21.80
2017-08-29T00:22:28.809Z,21.70
2017-08-29T00:24:57.322Z,21.70
2017-08-29T00:27:26.017Z,21.70
2017-08-29T00:29:54.429Z,21.70
2017-08-29T00:32:22.864Z,21.60
2017-08-29T00:34:51.277Z,21.60
2017-08-29T00:37:19.710Z,21.60
2017-08-29T00:39:47.901Z,21.50
2017-08-29T00:42:16.333Z,21.50
2017-08-29T00:44:44.753Z,21.50
2017-08-29T00:47:13.477Z,21.50
2017-08-29T00:49:41.899Z,21.40
2017-08-29T00:52:10.358Z,21.40
2017-08-29T00:54:38.088Z,21.40
2017-08-29T00:57:06.173Z,21.40
2017-08-29T00:59:34.601Z,21.40
2017-08-29T01:02:03.037Z,21.30
2017-08-29T01:04:31.469Z,21.40
2017-08-29T01:06:59.904Z,21.30
2017-08-29T01:09:28.360Z,21.30
2017-08-29T01:11:56.425Z,21.30
2017-08-29T01:14:24.140Z,21.30
2017-08-29T01:16:52.589Z,21.20
2017-08-29T01:19:21.017Z,21.20
2017-08-29T01:21:49.092Z,21.20
2017-08-29T01:24:17.192Z,21.20
2017-08-29T01:26:45.286Z,21.20
2017-08-29T01:29:13.010Z,21.20
2017-08-29T01:31:41.430Z,21.20
2017-08-29T01:34:10.684Z,21.20
2017-08-29T01:36:38.760Z,21.20
2017-08-29T01:39:06.856Z,21.20
2017-08-29T01:41:34.946Z,21.20
2017-08-29T01:44:03.013Z,21.20
2017-08-29T01:46:30.797Z,21.20
2017-08-29T01:48:58.873Z,21.20
2017-08-29T01:51:26.941Z,21.20
2017-08-29T01:53:55.073Z,21.10
2017-08-29T01:56:22.902Z,21.10
2017-08-29T01:58:50.973Z,21.10
2017-08-29T02:01:19.085Z,21.10
2017-08-29T02:03:47.164Z,21.10
2017-08-29T02:06:14.895Z,21.00
2017-08-29T02:08:42.636Z,20.90
2017-08-29T02:11:10.713Z,20.90
2017-08-29T02:13:39.181Z,20.90
2017-08-29T02:16:07.882Z,20.90
2017-08-29T02:18:36.301Z,20.90
2017-08-29T02:21:04.716Z,20.90
2017-08-29T02:23:33.940Z,20.90
2017-08-29T02:26:02.357Z,20.80
2017-08-29T02:28:30.802Z,20.90
2017-08-29T02:30:59.241Z,20.90
2017-08-29T02:33:27.673Z,20.80
2017-08-29T02:35:56.077Z,20.80
2017-08-29T02:38:25.320Z,20.80
2017-08-29T02:40:53.745Z,20.80
2017-08-29T02:43:22.439Z,20.70
2017-08-29T02:45:50.905Z,20.70
2017-08-29T02:48:19.318Z,20.70
2017-08-29T02:50:47.733Z,20.70
2017-08-29T02:53:16.189Z,20.70
2017-08-29T02:55:44.639Z,20.70
2017-08-29T02:58:13.165Z,20.60
2017-08-29T03:00:41.260Z,20.60
2017-08-29T03:03:09.671Z,20.50
2017-08-29T03:05:38.090Z,20.50
2017-08-29T03:08:06.569Z,20.50
2017-08-29T03:10:34.989Z,20.40
2017-08-29T03:13:03.208Z,20.40
2017-08-29T03:15:31.660Z,20.40
2017-08-29T03:18:00.080Z,20.40
2017-08-29T03:20:28.537Z,20.40
2017-08-29T03:22:56.976Z,20.30
2017-08-29T03:25:25.389Z,20.30
2017-08-29T03:27:53.824Z,20.40
2017-08-29T03:30:22.285Z,20.40
2017-08-29T03:32:50.716Z,20.40
2017-08-29T03:35:19.136Z,20.40
2017-08-29T03:37:47.576Z,20.40
2017-08-29T03:40:15.986Z,20.30
2017-08-29T03:42:44.411Z,20.30
2017-08-29T03:45:12.933Z,20.40
2017-08-29T03:47:41.332Z,20.30
2017-08-29T03:50:09.752Z,20.30
2017-08-29T03:52:38.204Z,20.20
2017-08-29T03:55:06.612Z,20.20
2017-08-29T03:57:35.025Z,20.10
2017-08-29T04:00:03.269Z,20.10
2017-08-29T04:02:31.681Z,20.10
2017-08-29T04:05:00.100Z,20.10
2017-08-29T04:07:28.571Z,20.10
2017-08-29T04:09:56.286Z,20.20
2017-08-29T04:12:24.704Z,20.20
2017-08-29T04:14:53.168Z,20.20
2017-08-29T04:17:21.600Z,20.10
2017-08-29T04:19:50.058Z,20.10
2017-08-29T04:22:18.494Z,20.10
2017-08-29T04:24:46.956Z,20.10
2017-08-29T04:27:15.019Z,20.00
2017-08-29T04:29:43.450Z,20.00
2017-08-29T04:32:11.875Z,19.90
2017-08-29T04:34:40.280Z,19.90
2017-08-29T04:37:08.728Z,19.90
2017-08-29T04:39:37.160Z,19.90
2017-08-29T04:42:05.571Z,19.90
2017-08-29T04:44:34.025Z,20.00
2017-08-29T04:47:02.519Z,20.00
2017-08-29T04:49:31.197Z,19.90
2017-08-29T04:51:59.657Z,19.90
2017-08-29T04:54:28.552Z,20.00
2017-08-29T04:56:56.980Z,19.90
2017-08-29T04:59:25.096Z,20.00
2017-08-29T05:01:53.501Z,19.90
2017-08-29T05:04:21.915Z,19.90
2017-08-29T05:06:50.345Z,20.00
2017-08-29T05:09:18.122Z,19.90
2017-08-29T05:11:46.214Z,19.90
2017-08-29T05:14:14.662Z,19.90
2017-08-29T05:16:43.086Z,20.00
2017-08-29T05:19:11.505Z,20.10
2017-08-29T05:21:39.950Z,20.10
2017-08-29T05:24:08.388Z,20.10
2017-08-29T05:26:37.065Z,20.10
2017-08-29T05:29:05.553Z,20.00
2017-08-29T05:31:33.966Z,20.00
2017-08-29T05:34:02.429Z,20.00
2017-08-29T05:36:30.883Z,20.00
2017-08-29T05:38:59.321Z,19.90
2017-08-29T05:41:27.745Z,20.00
2017-08-29T05:43:56.212Z,20.10
2017-08-29T05:46:24.620Z,20.10
2017-08-29T05:48:53.067Z,20.10
2017-08-29T05:51:21.765Z,20.10
2017-08-29T05:53:50.181Z,20.20
2017-08-29T05:56:18.613Z,20.20
2017-08-29T05:58:47.060Z,20.30
2017-08-29T06:01:15.500Z,20.40
2017-08-29T06:03:43.932Z,20.40
2017-08-29T06:06:12.380Z,20.40
2017-08-29T06:08:40.605Z,20.50
2017-08-29T06:11:08.500Z,20.50
2017-08-29T06:13:36.850Z,20.50
2017-08-29T06:16:05.264Z,20.50
2017-08-29T06:18:33.492Z,20.60
2017-08-29T06:21:01.938Z,20.60
2017-08-29T06:23:30.343Z,20.70
2017-08-29T06:25:59.557Z,20.70
2017-08-29T06:28:27.989Z,20.80
2017-08-29T06:30:56.412Z,20.90
2017-08-29T06:33:24.860Z,21.00
2017-08-29T06:35:53.308Z,21.20
2017-08-29T06:38:21.724Z,21.20
2017-08-29T06:40:50.157Z,21.30
2017-08-29T06:43:18.600Z,21.50
2017-08-29T06:45:47.778Z,21.60
2017-08-29T06:48:16.209Z,21.60
2017-08-29T06:50:44.717Z,21.70
2017-08-29T06:53:13.331Z,21.70
2017-08-29T06:55:42.555Z,21.90
2017-08-29T06:58:11.031Z,21.90
2017-08-29T07:00:40.036Z,21.90
2017-08-29T07:03:08.463Z,21.90
2017-08-29T07:05:36.898Z,21.90
2017-08-29T07:08:05.321Z,22.10
2017-08-29T07:10:33.751Z,22.20
2017-08-29T07:13:02.012Z,22.40
2017-08-29T07:15:30.232Z,22.40
2017-08-29T07:17:58.661Z,22.50
2017-08-29T07:20:27.095Z,22.60
2017-08-29T07:22:55.513Z,22.60
2017-08-29T07:25:24.694Z,22.80
2017-08-29T07:27:53.124Z,22.80
2017-08-29T07:30:21.545Z,22.90
2017-08-29T07:32:49.981Z,23.10
2017-08-29T07:35:18.428Z,23.10
2017-08-29T07:37:46.862Z,23.10
2017-08-29T07:40:15.102Z,23.10
2017-08-29T07:42:43.349Z,23.20
2017-08-29T07:45:11.768Z,23.20
2017-08-29T07:47:40.218Z,23.20
2017-08-29T07:50:08.482Z,23.30
2017-08-29T07:52:37.661Z,23.50
2017-08-29T07:55:05.209Z,23.50
2017-08-29T07:57:33.917Z,23.70
2017-08-29T08:00:04.379Z,23.90
2017-08-29T08:02:32.801Z,24.20
2017-08-29T08:05:01.241Z,24.30
2017-08-29T08:07:29.668Z,24.40
2017-08-29T08:09:57.916Z,24.60
2017-08-29T08:12:26.171Z,24.90
2017-08-29T08:14:54.426Z,25.40
2017-08-29T08:17:23.114Z,26.00
2017-08-29T08:19:51.553Z,26.50
2017-08-29T08:22:20.160Z,27.20
2017-08-29T08:24:49.343Z,28.30
2017-08-29T08:27:17.900Z,28.30
2017-08-29T08:29:46.719Z,28.50
2017-08-29T08:32:15.913Z,28.30
2017-08-29T08:34:44.505Z,28.30
2017-08-29T08:37:13.690Z,27.80
2017-08-29T08:39:42.972Z,27.50
2017-08-29T08:42:11.412Z,27.40
2017-08-29T08:44:39.844Z,27.20
2017-08-29T08:47:09.272Z,27.10
2017-08-29T08:49:37.700Z,27.10
2017-08-29T08:52:06.163Z,27.00
2017-08-29T08:54:34.636Z,26.90
2017-08-29T08:57:02.905Z,26.70
2017-08-29T08:59:31.477Z,26.60
2017-08-29T09:01:59.912Z,26.60
2017-08-29T09:04:28.325Z,26.50
2017-08-29T09:06:56.752Z,26.60
2017-08-29T09:09:25.181Z,26.50
2017-08-29T09:11:53.859Z,26.60
2017-08-29T09:14:22.285Z,26.70
2017-08-29T09:16:50.744Z,26.80
2017-08-29T09:19:19.229Z,26.90
2017-08-29T09:21:47.666Z,26.90
2017-08-29T09:24:17.070Z,27.10
2017-08-29T09:26:45.508Z,27.10
2017-08-29T09:29:13.931Z,27.40
2017-08-29T09:31:43.245Z,28.20
2017-08-29T09:34:11.707Z,28.20
2017-08-29T09:36:40.403Z,28.60
2017-08-29T09:39:08.832Z,29.10
2017-08-29T09:41:37.310Z,29.60
2017-08-29T09:44:05.764Z,29.90
2017-08-29T09:46:34.201Z,30.10
2017-08-29T09:49:02.661Z,30.20
2017-08-29T09:51:31.341Z,30.20
2017-08-29T09:53:59.761Z,30.30
2017-08-29T09:56:28.213Z,30.60
2017-08-29T09:58:56.532Z,30.90
2017-08-29T10:01:25.199Z,31.10
2017-08-29T10:03:53.632Z,31.20
2017-08-29T10:06:22.042Z,30.70
2017-08-29T10:08:50.510Z,30.20
2017-08-29T10:11:18.935Z,29.70
2017-08-29T10:13:47.404Z,29.50
2017-08-29T10:16:15.830Z,29.40
2017-08-29T10:18:44.277Z,29.20
2017-08-29T10:21:12.729Z,29.20
2017-08-29T10:23:41.168Z,29.30
2017-08-29T10:26:09.701Z,29.20
2017-08-29T10:28:38.120Z,29.00
2017-08-29T10:31:06.557Z,28.80
2017-08-29T10:33:34.984Z,28.60
2017-08-29T10:36:03.424Z,28.60
2017-08-29T10:38:31.869Z,28.40
2017-08-29T10:41:00.289Z,28.40
2017-08-29T10:43:28.711Z,28.40
2017-08-29T10:45:57.149Z,28.20
2017-08-29T10:48:25.580Z,28.10
2017-08-29T10:50:53.921Z,27.90
2017-08-29T10:53:22.378Z,27.90
2017-08-29T10:55:50.791Z,28.10
2017-08-29T10:58:19.241Z,28.20
2017-08-29T11:00:47.656Z,28.10
2017-08-29T11:03:16.273Z,27.90
2017-08-29T11:05:44.724Z,28.00
2017-08-29T11:08:13.254Z,27.90
2017-08-29T11:10:41.501Z,27.90
2017-08-29T11:13:09.921Z,27.90
2017-08-29T11:15:38.593Z,27.80
2017-08-29T11:18:07.005Z,27.70
2017-08-29T11:20:35.422Z,27.60
2017-08-29T11:23:03.888Z,27.70
2017-08-29T11:25:32.123Z,27.80
2017-08-29T11:28:00.468Z,27.70
2017-08-29T11:30:28.847Z,27.70
2017-08-29T11:32:57.095Z,27.60
2017-08-29T11:35:25.346Z,27.70
2017-08-29T11:37:53.869Z,27.80
2017-08-29T11:40:22.146Z,27.80
2017-08-29T11:42:50.359Z,27.90
2017-08-29T11:45:18.663Z,28.00
2017-08-29T11:47:46.903Z,27.90
2017-08-29T11:50:15.137Z,27.90
2017-08-29T11:52:43.416Z,28.00
2017-08-29T11:55:11.706Z,28.00
2017-08-29T11:57:40.097Z,28.10
2017-08-29T12:00:08.354Z,28.10
2017-08-29T12:02:36.630Z,28.20
2017-08-29T12:05:05.059Z,28.20
2017-08-29T12:07:33.328Z,28.30
2017-08-29T12:10:01.573Z,28.50
2017-08-29T12:12:29.813Z,28.20
2017-08-29T12:14:58.253Z,28.10
2017-08-29T12:17:26.778Z,28.10
2017-08-29T12:19:55.209Z,28.20
2017-08-29T12:22:23.768Z,28.20
2017-08-29T12:24:52.177Z,28.20
2017-08-29T12:27:20.654Z,28.30
2017-08-29T12:29:49.128Z,28.30
2017-08-29T12:32:17.558Z,28.20
2017-08-29T12:34:45.971Z,28.20
2017-08-29T12:37:14.449Z,28.10
2017-08-29T12:39:42.877Z,28.00
2017-08-29T12:42:11.312Z,27.80
2017-08-29T12:44:39.576Z,27.60
2017-08-29T12:47:07.844Z,27.60
2017-08-29T12:49:36.513Z,27.70
2017-08-29T12:52:04.961Z,27.70
2017-08-29T12:54:33.387Z,27.70
2017-08-29T12:57:01.809Z,27.70
2017-08-29T12:59:30.276Z,27.70
2017-08-29T13:01:58.744Z,27.80
2017-08-29T13:04:27.134Z,27.80
2017-08-29T13:06:55.579Z,27.60
2017-08-29T13:09:24.053Z,27.60
2017-08-29T13:11:52.258Z,27.60
2017-08-29T13:14:20.968Z,27.70
2017-08-29T13:16:49.377Z,27.90
2017-08-29T13:19:17.800Z,27.90
2017-08-29T13:21:46.072Z,27.90
2017-08-29T13:24:14.302Z,28.00
2017-08-29T13:26:42.725Z,28.00
2017-08-29T13:29:11.187Z,27.90
2017-08-29T13:31:39.624Z,27.90
2017-08-29T13:34:08.164Z,28.10
2017-08-29T13:36:36.628Z,28.00
2017-08-29T13:39:04.169Z,28.10
2017-08-29T13:41:32.611Z,28.20
2017-08-29T13:44:01.067Z,28.40
2017-08-29T13:46:29.525Z,28.40
2017-08-29T13:48:57.965Z,28.30
2017-08-29T13:51:26.412Z,28.20
2017-08-29T13:53:54.834Z,28.30
2017-08-29T13:56:23.256Z,28.50
2017-08-29T13:58:51.718Z,28.30
2017-08-29T14:01:20.137Z,28.20
2017-08-29T14:03:48.574Z,28.40
2017-08-29T14:06:17.004Z,28.50
2017-08-29T14:08:45.444Z,28.40
2017-08-29T14:11:13.864Z,28.30
2017-08-29T14:13:42.299Z,28.30
2017-08-29T14:16:10.714Z,28.50
2017-08-29T14:18:39.141Z,28.30
2017-08-29T14:21:07.601Z,28.20
2017-08-29T14:23:36.017Z,28.20
2017-08-29T14:26:04.438Z,28.10
2017-08-29T14:28:33.655Z,27.90
2017-08-29T14:31:02.078Z,27.90
2017-08-29T14:33:30.495Z,28.10
2017-08-29T14:35:58.957Z,28.20
2017-08-29T14:38:27.385Z,28.10
2017-08-29T14:40:55.788Z,28.00
2017-08-29T14:43:24.262Z,28.10
2017-08-29T14:45:52.688Z,28.40
2017-08-29T14:48:32.365Z,28.40
2017-08-29T14:51:00.781Z,28.30
2017-08-29T14:53:29.217Z,28.20
2017-08-29T14:55:57.652Z,28.20
2017-08-29T14:58:26.072Z,28.20
2017-08-29T15:00:54.507Z,28.20
2017-08-29T15:03:22.966Z,28.00
2017-08-29T15:05:51.401Z,28.00
2017-08-29T15:08:19.872Z,28.00
2017-08-29T15:10:48.403Z,27.80
2017-08-29T15:13:16.865Z,27.90
2017-08-29T15:15:48.819Z,27.80
2017-08-29T15:18:23.704Z,28.00
2017-08-29T15:20:56.187Z,28.00
2017-08-29T15:23:28.118Z,28.10
2017-08-29T15:25:56.722Z,28.00
2017-08-29T15:28:25.183Z,28.00
2017-08-29T15:30:53.597Z,27.90
2017-08-29T15:33:22.089Z,28.00
2017-08-29T15:35:50.512Z,28.00
2017-08-29T15:38:18.924Z,28.10
2017-08-29T15:40:47.374Z,28.30
2017-08-29T15:43:15.783Z,28.20
2017-08-29T15:45:44.217Z,28.20
2017-08-29T15:48:12.645Z,28.20
2017-08-29T15:50:41.093Z,28.00
2017-08-29T15:53:09.538Z,28.10
2017-08-29T15:55:38.244Z,28.20
2017-08-29T15:58:06.682Z,28.20
2017-08-29T16:00:35.106Z,28.10
2017-08-29T16:03:03.224Z,28.00
2017-08-29T16:05:31.940Z,28.00
2017-08-29T16:08:00.485Z,28.10
2017-08-29T16:10:28.930Z,28.10
2017-08-29T16:12:57.376Z,28.10
2017-08-29T16:15:25.802Z,28.10
2017-08-29T16:17:54.258Z,28.00
2017-08-29T16:20:22.665Z,27.90
2017-08-29T16:22:51.087Z,27.80
2017-08-29T16:25:19.530Z,27.80
2017-08-29T16:27:47.960Z,27.80
2017-08-29T16:30:16.370Z,27.80
2017-08-29T16:32:44.814Z,27.90
2017-08-29T16:35:13.261Z,27.90
2017-08-29T16:37:41.673Z,27.80
2017-08-29T16:40:10.130Z,27.80
2017-08-29T16:42:38.566Z,27.70
2017-08-29T16:45:06.981Z,27.70
2017-08-29T16:47:35.384Z,27.60
2017-08-29T16:50:03.816Z,27.60
2017-08-29T16:52:32.249Z,27.60
2017-08-29T16:55:00.689Z,27.60
2017-08-29T16:57:29.101Z,27.60
2017-08-29T16:59:57.544Z,27.70
2017-08-29T17:02:25.986Z,27.70
2017-08-29T17:04:54.412Z,27.70
2017-08-29T17:07:22.862Z,27.60
2017-08-29T17:09:51.302Z,27.60
2017-08-29T17:12:19.733Z,27.60
2017-08-29T17:14:48.176Z,27.50
2017-08-29T17:17:16.640Z,27.50
2017-08-29T17:19:45.062Z,27.50
2017-08-29T17:22:13.504Z,27.50
2017-08-29T17:24:41.969Z,27.50
2017-08-29T17:27:10.401Z,27.50
2017-08-29T17:29:38.855Z,27.60
2017-08-29T17:32:07.342Z,27.50
2017-08-29T17:34:36.520Z,27.40
2017-08-29T17:37:04.943Z,27.40
2017-08-29T17:39:33.520Z,27.30
2017-08-29T17:42:01.930Z,27.30
2017-08-29T17:44:30.345Z,27.40
2017-08-29T17:46:58.812Z,27.40
2017-08-29T17:49:27.248Z,27.40
2017-08-29T17:51:55.691Z,27.40
2017-08-29T17:54:23.944Z,27.50
2017-08-29T17:56:52.366Z,27.40
2017-08-29T17:59:20.777Z,27.40
2017-08-29T18:01:49.217Z,27.40
2017-08-29T18:04:17.633Z,27.30
2017-08-29T18:06:46.053Z,27.30
2017-08-29T18:09:14.648Z,27.30
2017-08-29T18:11:43.161Z,27.30
2017-08-29T18:14:11.570Z,27.20
2017-08-29T18:16:40.021Z,27.10
2017-08-29T18:19:08.449Z,27.20
2017-08-29T18:21:36.881Z,27.20
2017-08-29T18:24:05.317Z,27.10
2017-08-29T18:26:33.736Z,27.10
2017-08-29T18:29:02.167Z,27.10
2017-08-29T18:31:30.610Z,27.00
2017-08-29T18:33:59.047Z,27.00
2017-08-29T18:36:27.486Z,27.00
2017-08-29T18:38:55.953Z,27.00
2017-08-29T18:41:24.374Z,27.00
2017-08-29T18:43:52.796Z,26.90
2017-08-29T18:46:21.258Z,26.90
2017-08-29T18:48:49.717Z,26.90
2017-08-29T18:51:18.129Z,26.90
2017-08-29T18:53:46.586Z,26.90
2017-08-29T18:56:15.016Z,26.90
2017-08-29T18:58:43.248Z,26.90
2017-08-29T19:01:11.510Z,26.90
2017-08-29T19:03:39.942Z,26.90
2017-08-29T19:06:08.383Z,26.80
2017-08-29T19:08:36.789Z,26.80
2017-08-29T19:11:05.022Z,26.80
2017-08-29T19:13:33.447Z,26.70
2017-08-29T19:16:01.877Z,26.70
2017-08-29T19:18:30.302Z,26.70
2017-08-29T19:20:58.717Z,26.60
2017-08-29T19:23:27.417Z,26.50
2017-08-29T19:25:55.829Z,26.50
2017-08-29T19:28:24.241Z,26.50
2017-08-29T19:30:52.747Z,26.40
2017-08-29T19:33:21.182Z,26.40
2017-08-29T19:35:49.608Z,26.30
2017-08-29T19:38:18.154Z,26.30
2017-08-29T19:40:46.573Z,26.20
2017-08-29T19:43:15.025Z,26.20
2017-08-29T19:45:44.393Z,26.10
2017-08-29T19:48:12.828Z,26.10
2017-08-29T19:50:41.253Z,26.10
2017-08-29T19:53:09.714Z,26.10
2017-08-29T19:55:38.150Z,26.10
2017-08-29T19:58:07.380Z,26.00
2017-08-29T20:00:35.941Z,26.00
2017-08-29T20:03:04.379Z,26.00
2017-08-29T20:05:33.613Z,25.90
2017-08-29T20:08:02.695Z,25.80
2017-08-29T20:10:31.130Z,25.80
2017-08-29T20:13:00.320Z,25.70
2017-08-29T20:15:28.770Z,25.70
2017-08-29T20:17:57.198Z,25.60
2017-08-29T20:20:25.717Z,25.60
2017-08-29T20:22:54.181Z,25.60
2017-08-29T20:25:22.865Z,25.70
2017-08-29T20:27:52.073Z,25.50
2017-08-29T20:30:21.305Z,25.40
2017-08-29T20:32:49.744Z,25.40
2017-08-29T20:35:18.233Z,25.40
2017-08-29T20:37:46.662Z,25.40
2017-08-29T20:40:15.115Z,25.30
2017-08-29T20:42:43.548Z,25.30
2017-08-29T20:45:12.245Z,25.30
2017-08-29T20:47:41.433Z,25.20
2017-08-29T20:50:09.861Z,25.20
2017-08-29T20:52:38.323Z,25.30
2017-08-29T20:55:06.788Z,25.20
2017-08-29T20:57:35.206Z,25.30
2017-08-29T21:00:03.652Z,25.20
2017-08-29T21:02:32.079Z,25.20
2017-08-29T21:05:00.613Z,25.20
2017-08-29T21:07:29.149Z,25.20
2017-08-29T21:09:57.628Z,25.20
2017-08-29T21:12:26.286Z,25.20
2017-08-29T21:14:54.804Z,25.10
2017-08-29T21:17:23.533Z,25.10
2017-08-29T21:19:51.993Z,25.10
2017-08-29T21:22:20.461Z,25.00
2017-08-29T21:24:48.987Z,25.00
2017-08-29T21:27:17.445Z,25.00
2017-08-29T21:29:45.902Z,25.00
2017-08-29T21:32:14.448Z,24.90
2017-08-29T21:34:42.889Z,24.90
2017-08-29T21:37:11.506Z,24.90
2017-08-29T21:39:40.153Z,24.90
2017-08-29T21:42:09.051Z,24.90
2017-08-29T21:44:37.526Z,24.90
2017-08-29T21:47:05.984Z,24.90
2017-08-29T21:49:34.424Z,24.80
2017-08-29T21:52:02.874Z,24.80
2017-08-29T21:54:31.358Z,24.70
2017-08-29T21:56:59.821Z,24.70
2017-08-29T21:59:28.353Z,24.60
2017-08-29T22:01:56.777Z,24.50
2017-08-29T22:04:25.210Z,24.50
2017-08-29T22:06:53.684Z,24.50
2017-08-29T22:09:22.183Z,24.40
2017-08-29T22:11:50.749Z,24.30
2017-08-29T22:14:19.340Z,24.30
2017-08-29T22:16:47.754Z,24.30
2017-08-29T22:19:16.186Z,24.20
2017-08-29T22:21:44.633Z,24.20
2017-08-29T22:24:13.081Z,24.20
2017-08-29T22:26:41.812Z,24.20
2017-08-29T22:29:10.253Z,24.10
2017-08-29T22:31:38.757Z,24.10
2017-08-29T22:34:07.179Z,24.10
2017-08-29T22:36:35.706Z,24.10
2017-08-29T22:39:03.376Z,24.00
2017-08-29T22:41:31.800Z,24.00
2017-08-29T22:44:00.267Z,24.00
2017-08-29T22:46:28.921Z,24.00
2017-08-29T22:48:57.529Z,24.00
2017-08-29T22:51:26.249Z,23.90
2017-08-29T22:53:54.756Z,23.90
2017-08-29T22:56:23.165Z,23.80
2017-08-29T22:58:51.680Z,23.80
2017-08-29T23:01:20.258Z,23.80
2017-08-29T23:03:48.729Z,23.80
2017-08-29T23:06:17.185Z,23.80
2017-08-29T23:08:47.373Z,23.80
2017-08-29T23:11:15.464Z,23.80
2017-08-29T23:13:43.954Z,23.80
2017-08-29T23:16:12.424Z,23.80
2017-08-29T23:18:40.859Z,23.80
2017-08-29T23:21:09.295Z,23.80
2017-08-29T23:23:37.724Z,23.70
2017-08-29T23:26:06.145Z,23.80
2017-08-29T23:28:34.701Z,23.80
2017-08-29T23:31:03.137Z,23.70
2017-08-29T23:33:31.564Z,23.70
2017-08-29T23:38:35.981Z,23.70
2017-08-29T23:41:04.413Z,23.70
2017-08-29T23:43:32.846Z,23.60
2017-08-29T23:46:01.331Z,23.60
2017-08-29T23:48:29.393Z,23.50
2017-08-29T23:50:57.806Z,23.40
2017-08-29T23:53:26.257Z,23.40
2017-08-29T23:55:54.696Z,23.40
2017-08-29T23:58:23.112Z,23.40
